Alpena, MI

12:33 AM EDT on October 23, 2014 (GMT -0400)
Alpena County Regional | Change Station
CLOSE
Current Station
Airport
Location: Alpena,
Elevation: 689 ft
Nearby Weather Stations

Elev 689 ft 45.07 °N, 83.56 °W | Updated 39 minutes ago

Clear
Clear
29 °F
Feels Like 25 °F
N
4
Wind Variable Wind from West

Today
High -- | Low -- °F
--% Chance of Precip.
Yesterday
High -- | Low -- °F
Precip. -- in
8:00 AM 6:35 PM
Waning Crescent, 1% visible
Pressure 30.33 in
Visibility 10.0 miles
Clouds Clear
Windchill 25 °F
Dew Point 26 °F
Humidity 89%
Rainfall 0.00 in
Snow Depth Not available.
UV 0 out of 12
Pollen .30 out of 12
Ozone Good
PM2.5 Good
Flu Activity Sporadic
METAR KAPN 230354Z AUTO 27003KT 10SM CLR M02/M03 A3030 RMK AO2 SLP269 T10171033

More Conditions Fewer Conditions

Pressure 30.33 in
Visibility 10.0 miles
Clouds Clear
Windchill 25 °F
Dew Point 26 °F
Humidity 89%
Rainfall 0.00 in
Snow Depth Not available.
UV 0 out of 12
Pollen .30 out of 12
Ozone Good
PM2.5 Good
Flu Activity Sporadic
METAR KAPN 230354Z AUTO 27003KT 10SM CLR M02/M03 A3030 RMK AO2 SLP269 T10171033

More Conditions Fewer Conditions

Nowcast | as of 12:00 am EDT on October 23, 2014

At 1 am...mostly clear. Temperature 33. Light winds. At 3 am...mostly clear. Temperature 32. Light winds. At 5 am...mostly clear. Temperature 31. Light winds. At 7 am...mostly clear. Patchy fog. Temperature 30. Light winds.

×

10-Day Weather Forecast

Almanac

Astronomy

Oct. 23, 2014 Rise Set
Actual Time 8:00 AM EDT 6:35 PM EDT
Civil Twilight 7:30 AM EDT 7:05 PM EDT
Nautical Twilight 6:55 AM EDT 7:39 PM EDT
Astronomical Twilight 6:21 AM EDT 8:13 PM EDT
Moon 7:38 AM EDT 6:36 PM EDT
Length of Visible Light 11h 35m
Length of Day
10h 35m
Tomorrow will be 2m 56s shorter.
Waning Crescent, 1% of the Moon is Illuminated
Today
Waning Crescent
Oct 23
New
Oct 30
First Quarter
Nov 6
Full
Nov 14
Last Quarter

Today's Extremes

State Highs State Lows

Community

WunderPhotos

Upload Photos

1,764,154 photos uploaded!

Nearby

Air Quality

  Air Quality AQ Index Pollutant
Yesterday Good
OZONE
Yesterday Good
PM2.5
Current Good
PM2.5
Current Good
OZONE
Wednesday Good
PM2.5
Thursday Good
PM2.5
Friday Good
PM2.5
Saturday Good
PM2.5
Sunday Good
PM2.5
Monday Good
PM2.5

Snow Depth

Station Depth Elevation
No new snow has been reported.

Earthquake Activity

City Distance Mag. Time & Date
No recent earthquake activity has been reported nearby.
Minimum magnitude displayed is 2.5.

Coastal Water Temperatures

Place Temperature
Alpena, MI 55.9 °F

Nearby Weather Stations